Terminal Aerodrome Forecast
Issued by NWS Upton, NY

Home | Current Version | Previous Version | Text Only | Print | Product List | Glossary On
Versions: 1 2 3 4 5 6 7 8 9 10 11 12 13 14 15 16 17 18 19 20 21 22 23 24 25 26 27 28
653
FTUS41 KOKX 121150
TAFJFK
TAF
KJFK 121150Z 1212/1318 29010KT P6SM SCT250
     FM121600 23010KT P6SM BKN150
     FM122000 23010KT P6SM BKN090
     FM122300 24009KT P6SM BKN050 PROB30 1303/1306 4SM -SHSN SCT025
      BKN040
     FM130600 26011KT P6SM SCT025 BKN040 PROB30 1306/1309 2SM -SHSN
      BKN025
     FM130900 29019G27KT P6SM SCT050 BKN100 PROB30 1309/1311 4SM
      -SHSN SCT025 BKN040
     FM131100 31025G33KT P6SM FEW050 SCT120=

USA.gov is the U.S. government's official web portal to all federal, state and local government web resources and services.